Time;durP1;ratioP1;P1;durP2;ratioP2;P2;SDS_P1;SDS_P2;PMS_P1;PMS_P2;Temp;Humidity;BMP_temperature;BMP_pressure;BME280_temperature;BME280_humidity;BME280_pressure;Samples;Min_cycle;Max_cycle;Signal;HPM_P1;HPM_P2
2022/11/20 00:00:08;;;;;;;5.45;2.25;;;;;;;;;;5069148;28;20056;-76
2022/11/20 00:02:33;;;;;;;5.63;2.20;;;;;;;;;;5069221;28;20500;-76
2022/11/20 00:04:59;;;;;;;6.45;2.42;;;;;;;;;;5069431;28;20103;-76
2022/11/20 00:07:24;;;;;;;4.10;2.10;;;;;;;;;;5069223;28;20549;-76
2022/11/20 00:09:49;;;;;;;5.95;2.40;;;;;;;;;;5069120;28;20683;-75
2022/11/20 00:12:15;;;;;;;5.13;2.45;;;;;;;;;;5068744;28;20025;-78
2022/11/20 00:14:41;;;;;;;4.70;2.30;;;;;;;;;;5069180;28;20024;-75
2022/11/20 00:17:07;;;;;;;4.25;2.08;;;;;;;;;;5068873;28;20133;-75
2022/11/20 00:19:32;;;;;;;6.45;2.25;;;;;;;;;;5067587;28;20029;-76
2022/11/20 00:21:58;;;;;;;4.57;1.95;;;;;;;;;;5069152;28;20031;-76
2022/11/20 00:24:23;;;;;;;4.60;2.17;;;;;;;;;;5069194;28;20051;-75
2022/11/20 00:26:48;;;;;;;4.28;2.03;;;;;;;;;;5067326;28;20083;-75
2022/11/20 00:29:14;;;;;;;4.90;1.88;;;;;;;;;;5069202;28;20025;-77
2022/11/20 00:31:39;;;;;;;5.30;2.10;;;;;;;;;;5068993;28;20024;-77
2022/11/20 00:34:05;;;;;;;5.55;2.38;;;;;;;;;;5068871;28;20021;-77
2022/11/20 00:36:33;;;;;;;5.25;2.10;;;;;;;;;;5068804;28;20147;-76
2022/11/20 00:38:59;;;;;;;5.15;2.33;;;;;;;;;;5071280;28;20025;-77
2022/11/20 00:41:26;;;;;;;6.22;1.98;;;;;;;;;;5072955;28;20025;-77
2022/11/20 00:43:53;;;;;;;4.93;2.00;;;;;;;;;;5072051;28;20029;-75
2022/11/20 00:46:21;;;;;;;6.90;2.10;;;;;;;;;;5073121;28;20028;-76
2022/11/20 00:48:46;;;;;;;3.40;1.80;;;;;;;;;;5072519;28;20028;-76
2022/11/20 00:51:18;;;;;;;3.25;1.77;;;;;;;;;;5072427;28;20028;-76
2022/11/20 00:53:44;;;;;;;2.63;1.60;;;;;;;;;;5072147;28;20484;-75
2022/11/20 00:56:12;;;;;;;2.80;1.70;;;;;;;;;;5071974;28;20084;-75
2022/11/20 00:58:39;;;;;;;3.65;1.50;;;;;;;;;;5071921;28;20032;-76
2022/11/20 01:01:25;;;;;;;4.22;1.50;;;;;;;;;;5072503;28;20154;-76
2022/11/20 01:03:52;;;;;;;2.60;1.48;;;;;;;;;;5072389;28;20020;-74
2022/11/20 01:06:21;;;;;;;3.22;1.67;;;;;;;;;;5072390;28;20020;-73
2022/11/20 01:08:47;;;;;;;3.00;1.40;;;;;;;;;;5072166;28;20024;-75
2022/11/20 01:11:15;;;;;;;4.20;1.45;;;;;;;;;;5072136;28;20054;-77
2022/11/20 01:13:41;;;;;;;4.32;1.50;;;;;;;;;;5071626;28;20039;-77
2022/11/20 01:16:18;;;;;;;2.85;1.55;;;;;;;;;;5072196;28;20029;-77
2022/11/20 01:18:47;;;;;;;2.90;1.60;;;;;;;;;;5072015;28;20036;-77
2022/11/20 01:21:18;;;;;;;4.00;1.40;;;;;;;;;;5071920;28;20033;-77
2022/11/20 01:23:45;;;;;;;3.08;1.50;;;;;;;;;;5071987;28;20025;-76
2022/11/20 01:26:13;;;;;;;2.90;1.40;;;;;;;;;;5072121;28;20028;-77
2022/11/20 01:28:39;;;;;;;2.60;1.50;;;;;;;;;;5071491;28;20370;-77
2022/11/20 01:31:17;;;;;;;2.75;1.40;;;;;;;;;;5071731;28;20035;-76
2022/11/20 01:33:43;;;;;;;2.58;1.48;;;;;;;;;;5071589;28;20459;-77
2022/11/20 01:36:10;;;;;;;4.20;1.75;;;;;;;;;;5071722;28;20044;-76
2022/11/20 01:38:36;;;;;;;5.85;1.98;;;;;;;;;;5071668;28;20032;-77
2022/11/20 01:41:01;;;;;;;4.40;2.55;;;;;;;;;;5071837;28;20483;-77
2022/11/20 01:43:28;;;;;;;4.38;2.75;;;;;;;;;;5071212;28;20036;-76
2022/11/20 01:46:15;;;;;;;4.70;3.13;;;;;;;;;;5071931;28;20082;-76
2022/11/20 01:49:24;;;;;;;5.10;3.13;;;;;;;;;;5071027;28;20037;-76
2022/11/20 01:51:57;;;;;;;4.57;3.20;;;;;;;;;;5048878;28;20029;-76
2022/11/20 01:54:32;;;;;;;5.97;3.00;;;;;;;;;;5067561;28;20044;-77
2022/11/20 01:57:00;;;;;;;5.82;3.30;;;;;;;;;;5071034;28;20069;-76
2022/11/20 01:59:27;;;;;;;3.88;2.75;;;;;;;;;;5071103;28;20052;-76
2022/11/20 02:01:53;;;;;;;3.88;2.70;;;;;;;;;;5071679;28;20027;-73
2022/11/20 02:04:20;;;;;;;3.88;2.67;;;;;;;;;;5071205;28;20024;-74
2022/11/20 02:07:00;;;;;;;4.50;2.13;;;;;;;;;;5070951;28;20472;-73
2022/11/20 02:09:26;;;;;;;3.08;2.10;;;;;;;;;;5071104;28;20034;-73
2022/11/20 02:11:52;;;;;;;5.05;1.90;;;;;;;;;;5070843;28;20031;-74
2022/11/20 02:14:19;;;;;;;2.80;1.70;;;;;;;;;;5070870;28;20971;-74
2022/11/20 02:16:47;;;;;;;3.13;1.58;;;;;;;;;;5071042;28;20024;-73
2022/11/20 02:19:24;;;;;;;4.55;1.90;;;;;;;;;;5070936;28;20020;-72
2022/11/20 02:21:59;;;;;;;2.63;1.60;;;;;;;;;;5071008;28;20020;-73
2022/11/20 02:24:25;;;;;;;3.40;1.58;;;;;;;;;;5070863;28;20031;-75
2022/11/20 02:26:54;;;;;;;2.47;1.48;;;;;;;;;;5069679;28;20028;-75
2022/11/20 02:29:35;;;;;;;2.90;1.60;;;;;;;;;;5070294;28;20604;-76
2022/11/20 02:32:02;;;;;;;2.95;1.67;;;;;;;;;;5070601;28;20021;-74
2022/11/20 02:34:28;;;;;;;4.53;1.58;;;;;;;;;;5070440;28;20028;-73
2022/11/20 02:36:55;;;;;;;2.38;1.45;;;;;;;;;;5070626;28;20111;-75
2022/11/20 02:39:24;;;;;;;3.97;1.60;;;;;;;;;;5070352;28;20048;-73
2022/11/20 02:41:53;;;;;;;3.95;1.55;;;;;;;;;;5070517;28;20025;-73
2022/11/20 02:44:19;;;;;;;3.28;1.65;;;;;;;;;;5070152;28;20115;-73
2022/11/20 02:46:45;;;;;;;5.15;1.67;;;;;;;;;;5070390;28;20032;-73
2022/11/20 02:49:10;;;;;;;3.30;1.60;;;;;;;;;;5070192;28;20115;-74
2022/11/20 02:51:36;;;;;;;3.85;1.60;;;;;;;;;;5070105;28;20086;-73
2022/11/20 02:54:01;;;;;;;3.40;1.75;;;;;;;;;;5069900;28;20475;-72
2022/11/20 02:56:27;;;;;;;3.75;1.80;;;;;;;;;;5070206;28;20044;-73
2022/11/20 02:58:53;;;;;;;4.15;1.80;;;;;;;;;;5069944;28;20029;-73
2022/11/20 03:01:18;;;;;;;4.75;2.00;;;;;;;;;;5069569;28;20033;-73
2022/11/20 03:03:44;;;;;;;4.18;2.10;;;;;;;;;;5070191;28;20107;-72
2022/11/20 03:06:09;;;;;;;5.50;1.90;;;;;;;;;;5070224;28;20090;-72
2022/11/20 03:08:35;;;;;;;4.00;1.90;;;;;;;;;;5069009;28;20024;-72
2022/11/20 03:11:07;;;;;;;4.55;1.90;;;;;;;;;;5069474;28;20101;-73
2022/11/20 03:13:33;;;;;;;5.13;1.98;;;;;;;;;;5069711;28;20056;-73
2022/11/20 03:16:09;;;;;;;6.30;2.20;;;;;;;;;;5069830;28;20067;-73
2022/11/20 03:18:35;;;;;;;3.88;2.30;;;;;;;;;;5070019;28;20496;-73
2022/11/20 03:21:00;;;;;;;4.10;2.17;;;;;;;;;;5069689;28;20096;-73
2022/11/20 03:23:28;;;;;;;4.57;2.20;;;;;;;;;;5070007;28;20028;-72
2022/11/20 03:25:53;;;;;;;5.13;2.17;;;;;;;;;;5069489;28;20102;-73
2022/11/20 03:28:19;;;;;;;5.15;2.38;;;;;;;;;;5069347;28;20629;-72
2022/11/20 03:30:44;;;;;;;3.97;2.38;;;;;;;;;;5069188;28;20078;-72
2022/11/20 03:33:10;;;;;;;5.28;2.20;;;;;;;;;;5069608;28;20017;-73
2022/11/20 03:35:35;;;;;;;3.25;2.08;;;;;;;;;;5069382;28;20430;-72
2022/11/20 03:38:00;;;;;;;4.43;2.10;;;;;;;;;;5069761;28;20484;-73
2022/11/20 03:40:26;;;;;;;4.82;2.13;;;;;;;;;;5069257;28;20534;-73
2022/11/20 03:42:51;;;;;;;3.92;2.20;;;;;;;;;;5069365;28;20041;-73
2022/11/20 03:45:18;;;;;;;4.10;2.45;;;;;;;;;;5069397;28;20052;-73
2022/11/20 03:47:45;;;;;;;4.05;2.08;;;;;;;;;;5069399;28;20024;-73
2022/11/20 03:50:14;;;;;;;4.70;2.50;;;;;;;;;;5069145;28;20037;-72
2022/11/20 03:52:40;;;;;;;3.50;2.20;;;;;;;;;;5069438;28;20043;-73
2022/11/20 03:55:07;;;;;;;4.57;2.08;;;;;;;;;;5069006;28;20044;-73
2022/11/20 03:57:32;;;;;;;5.28;2.25;;;;;;;;;;5069093;28;20089;-72
2022/11/20 03:59:57;;;;;;;5.35;2.13;;;;;;;;;;5069248;28;20060;-73
2022/11/20 04:02:23;;;;;;;3.47;2.03;;;;;;;;;;5069210;28;20050;-72
2022/11/20 04:04:48;;;;;;;4.25;2.00;;;;;;;;;;5069223;28;20040;-72
2022/11/20 04:07:14;;;;;;;4.03;2.05;;;;;;;;;;5069266;28;20021;-72
2022/11/20 04:09:39;;;;;;;5.47;2.30;;;;;;;;;;5068826;28;20024;-72
2022/11/20 04:12:05;;;;;;;5.38;2.40;;;;;;;;;;5069753;28;20021;-73
2022/11/20 04:14:30;;;;;;;5.93;2.30;;;;;;;;;;5073268;28;20025;-72
2022/11/20 04:16:56;;;;;;;6.45;2.15;;;;;;;;;;5073291;28;20050;-72
2022/11/20 04:19:21;;;;;;;3.70;2.20;;;;;;;;;;5073182;28;20024;-72
2022/11/20 04:21:46;;;;;;;5.82;1.90;;;;;;;;;;5073125;28;20020;-73
2022/11/20 04:24:12;;;;;;;4.18;1.92;;;;;;;;;;5073309;28;20021;-73
2022/11/20 04:26:38;;;;;;;5.28;2.22;;;;;;;;;;5072898;28;20077;-76
2022/11/20 04:29:04;;;;;;;4.05;1.85;;;;;;;;;;5072670;28;20063;-75
2022/11/20 04:31:32;;;;;;;5.65;2.10;;;;;;;;;;5072624;28;20056;-77
2022/11/20 04:34:05;;;;;;;3.42;1.55;;;;;;;;;;5073094;28;20040;-74
2022/11/20 04:36:31;;;;;;;5.15;2.28;;;;;;;;;;5072752;28;20024;-75
2022/11/20 04:39:02;;;;;;;2.92;1.70;;;;;;;;;;5073001;28;20393;-77
2022/11/20 04:41:30;;;;;;;3.90;1.80;;;;;;;;;;5072812;28;20085;-77
2022/11/20 04:44:04;;;;;;;4.10;1.77;;;;;;;;;;5072624;28;20039;-74
2022/11/20 04:46:35;;;;;;;2.83;1.58;;;;;;;;;;5072725;28;20025;-74
2022/11/20 04:49:00;;;;;;;;;;;;;;;;;;5073070;28;20066;-73
2022/11/20 04:51:27;;;;;;;3.47;1.77;;;;;;;;;;5072234;28;20013;-73
2022/11/20 04:53:53;;;;;;;3.72;1.80;;;;;;;;;;5072725;28;20460;-72
2022/11/20 04:56:18;;;;;;;3.45;1.70;;;;;;;;;;5072254;28;20682;-72
2022/11/20 04:58:44;;;;;;;4.72;2.08;;;;;;;;;;5072418;28;20021;-73
2022/11/20 05:01:13;;;;;;;3.58;1.83;;;;;;;;;;5072415;28;20020;-73
2022/11/20 05:03:40;;;;;;;2.95;1.77;;;;;;;;;;5072488;28;20496;-73
2022/11/20 05:06:07;;;;;;;3.88;1.50;;;;;;;;;;5072298;28;20083;-72
2022/11/20 05:08:33;;;;;;;3.65;1.80;;;;;;;;;;5072242;28;20108;-73
2022/11/20 05:11:11;;;;;;;3.22;1.60;;;;;;;;;;5072039;28;20039;-73
2022/11/20 05:13:37;;;;;;;3.25;1.92;;;;;;;;;;5071908;28;20116;-76
2022/11/20 05:16:10;;;;;;;4.03;1.58;;;;;;;;;;5071899;28;20050;-76
2022/11/20 05:18:37;;;;;;;3.35;1.77;;;;;;;;;;5072363;28;20025;-76
2022/11/20 05:21:02;;;;;;;5.07;1.90;;;;;;;;;;5071920;28;20032;-75
2022/11/20 05:23:30;;;;;;;4.15;1.80;;;;;;;;;;5071560;28;20032;-76
2022/11/20 05:25:57;;;;;;;2.45;1.52;;;;;;;;;;5071885;28;20070;-77
2022/11/20 05:28:23;;;;;;;3.42;1.70;;;;;;;;;;5071596;28;20047;-77
2022/11/20 05:30:49;;;;;;;4.22;2.00;;;;;;;;;;5071231;28;20616;-76
2022/11/20 05:33:15;;;;;;;3.20;1.60;;;;;;;;;;5072045;28;20113;-76
2022/11/20 05:35:40;;;;;;;4.97;1.80;;;;;;;;;;5071574;28;20689;-75
2022/11/20 05:38:06;;;;;;;3.67;1.70;;;;;;;;;;5071934;28;20056;-76
2022/11/20 05:40:31;;;;;;;3.47;1.95;;;;;;;;;;5071817;28;20040;-76
2022/11/20 05:42:57;;;;;;;4.15;1.80;;;;;;;;;;5071410;28;20468;-75
2022/11/20 05:45:22;;;;;;;3.28;1.83;;;;;;;;;;5071661;28;20074;-76
2022/11/20 05:47:48;;;;;;;3.47;1.90;;;;;;;;;;5071600;28;20063;-76
2022/11/20 05:50:14;;;;;;;4.78;2.00;;;;;;;;;;5071550;28;20116;-77
2022/11/20 05:52:40;;;;;;;2.90;2.05;;;;;;;;;;5071169;28;20025;-77
2022/11/20 05:55:06;;;;;;;4.93;1.73;;;;;;;;;;5071546;28;20070;-77
2022/11/20 05:57:32;;;;;;;3.38;1.70;;;;;;;;;;5070888;28;20058;-72
2022/11/20 05:59:57;;;;;;;3.42;1.77;;;;;;;;;;5071535;28;20036;-74
2022/11/20 06:02:23;;;;;;;4.05;1.92;;;;;;;;;;5071034;28;20557;-76
2022/11/20 06:04:48;;;;;;;5.38;2.03;;;;;;;;;;5071496;28;20043;-74
2022/11/20 06:07:14;;;;;;;3.90;1.85;;;;;;;;;;5070848;28;20461;-73
2022/11/20 06:09:39;;;;;;;3.60;2.03;;;;;;;;;;5071091;28;20029;-73
2022/11/20 06:12:05;;;;;;;4.38;1.90;;;;;;;;;;5070389;28;20102;-73
2022/11/20 06:14:31;;;;;;;3.60;1.98;;;;;;;;;;5071255;28;20150;-73
2022/11/20 06:16:56;;;;;;;3.28;2.10;;;;;;;;;;5070878;28;20056;-74
2022/11/20 06:19:22;;;;;;;4.60;2.28;;;;;;;;;;5071292;28;20020;-73
2022/11/20 06:21:49;;;;;;;3.80;2.00;;;;;;;;;;5070721;28;20492;-74
2022/11/20 06:24:14;;;;;;;5.25;2.00;;;;;;;;;;5071158;28;20358;-73
2022/11/20 06:26:40;;;;;;;5.38;2.60;;;;;;;;;;5070656;28;20484;-77
2022/11/20 06:29:05;;;;;;;4.68;2.70;;;;;;;;;;5070290;28;20020;-74
2022/11/20 06:31:34;;;;;;;4.93;2.72;;;;;;;;;;5070511;28;20020;-74
2022/11/20 06:34:01;;;;;;;6.85;2.92;;;;;;;;;;5070717;28;20492;-72
2022/11/20 06:36:26;;;;;;;5.28;3.30;;;;;;;;;;5069391;28;20028;-73
2022/11/20 06:38:52;;;;;;;5.97;3.05;;;;;;;;;;5070729;28;20031;-73
2022/11/20 06:41:20;;;;;;;5.47;3.13;;;;;;;;;;5070378;28;20028;-74
2022/11/20 06:43:46;;;;;;;5.40;3.00;;;;;;;;;;5070541;28;20411;-72
2022/11/20 06:46:13;;;;;;;4.97;3.10;;;;;;;;;;5070435;28;20504;-73
2022/11/20 06:48:39;;;;;;;4.82;2.92;;;;;;;;;;5070212;28;20054;-73
2022/11/20 06:51:06;;;;;;;5.40;3.35;;;;;;;;;;5070109;28;20033;-73
2022/11/20 06:53:31;;;;;;;5.82;3.60;;;;;;;;;;5070215;28;20456;-74
2022/11/20 06:55:57;;;;;;;12.18;5.57;;;;;;;;;;5070239;28;20074;-74
2022/11/20 06:58:23;;;;;;;18.27;6.05;;;;;;;;;;5069621;28;20021;-73
2022/11/20 07:00:49;;;;;;;10.82;5.75;;;;;;;;;;5070177;28;20028;-72
2022/11/20 07:03:14;;;;;;;12.65;6.10;;;;;;;;;;5069996;28;20039;-73
2022/11/20 07:05:40;;;;;;;14.02;6.20;;;;;;;;;;5069973;28;20067;-73
2022/11/20 07:08:06;;;;;;;8.80;4.75;;;;;;;;;;5069722;28;20042;-76
2022/11/20 07:10:31;;;;;;;7.10;3.97;;;;;;;;;;5070032;28;20401;-76
2022/11/20 07:12:57;;;;;;;8.30;4.68;;;;;;;;;;5067813;28;20052;-72
2022/11/20 07:15:24;;;;;;;10.77;4.47;;;;;;;;;;5069911;28;20031;-73
2022/11/20 07:17:49;;;;;;;6.95;4.13;;;;;;;;;;5069550;28;20563;-76
2022/11/20 07:20:15;;;;;;;6.82;4.25;;;;;;;;;;5070016;28;20111;-75
2022/11/20 07:22:41;;;;;;;8.57;4.13;;;;;;;;;;5069544;28;20020;-75
2022/11/20 07:25:07;;;;;;;10.23;3.95;;;;;;;;;;5069814;28;20055;-75
2022/11/20 07:27:32;;;;;;;8.48;4.10;;;;;;;;;;5069013;28;20024;-74
2022/11/20 07:29:58;;;;;;;7.22;4.13;;;;;;;;;;5069621;28;20021;-75
2022/11/20 07:32:24;;;;;;;9.00;4.70;;;;;;;;;;5069352;28;20477;-74
2022/11/20 07:34:49;;;;;;;6.75;3.90;;;;;;;;;;5069877;28;20021;-73
2022/11/20 07:37:15;;;;;;;11.73;4.32;;;;;;;;;;5069534;28;20030;-73
2022/11/20 07:39:41;;;;;;;8.77;4.30;;;;;;;;;;5069561;28;20415;-74
2022/11/20 07:42:07;;;;;;;6.72;4.00;;;;;;;;;;5069043;28;20048;-74
2022/11/20 07:44:33;;;;;;;7.90;4.18;;;;;;;;;;5069520;28;20586;-72
2022/11/20 07:46:59;;;;;;;10.43;3.92;;;;;;;;;;5068922;28;20021;-73
2022/11/20 07:49:24;;;;;;;8.75;4.35;;;;;;;;;;5069496;28;20074;-73
2022/11/20 07:51:53;;;;;;;6.97;3.72;;;;;;;;;;5069169;28;20093;-72
2022/11/20 07:54:20;;;;;;;6.47;3.83;;;;;;;;;;5069327;28;20024;-73
2022/11/20 07:56:45;;;;;;;8.25;3.97;;;;;;;;;;5069260;28;20128;-74
2022/11/20 07:59:12;;;;;;;9.45;3.85;;;;;;;;;;5069148;28;20055;-73
2022/11/20 08:01:39;;;;;;;11.15;4.57;;;;;;;;;;5069405;28;20028;-73
2022/11/20 08:04:04;;;;;;;8.40;4.50;;;;;;;;;;5069276;28;20029;-75
2022/11/20 08:06:30;;;;;;;15.00;4.68;;;;;;;;;;5069382;28;20029;-74
2022/11/20 08:08:55;;;;;;;8.20;4.43;;;;;;;;;;5069089;28;20420;-73
2022/11/20 08:14:15;;;;;;;6.93;3.60;;;;;;;;;;5069064;28;20039;-73
2022/11/20 08:16:45;;;;;;;7.72;4.32;;;;;;;;;;5069160;28;20028;-73
2022/11/20 08:19:12;;;;;;;7.38;3.97;;;;;;;;;;5069118;28;20025;-74
2022/11/20 08:21:38;;;;;;;7.65;4.35;;;;;;;;;;5068975;28;20028;-74
2022/11/20 08:24:03;;;;;;;8.90;4.55;;;;;;;;;;5067596;28;20029;-71
2022/11/20 08:26:29;;;;;;;9.20;4.25;;;;;;;;;;5069005;28;20052;-74
2022/11/20 08:28:55;;;;;;;8.18;4.47;;;;;;;;;;5068678;28;20107;-74
2022/11/20 08:31:22;;;;;;;11.40;4.68;;;;;;;;;;5069185;28;20033;-74
2022/11/20 08:33:48;;;;;;;8.77;4.90;;;;;;;;;;5068952;28;20464;-74
2022/11/20 08:36:13;;;;;;;8.55;4.47;;;;;;;;;;5068955;28;20027;-76
2022/11/20 08:38:39;;;;;;;8.63;4.75;;;;;;;;;;5068893;28;20365;-73
2022/11/20 08:41:23;;;;;;;11.48;4.70;;;;;;;;;;5069163;28;20029;-73
2022/11/20 08:43:50;;;;;;;8.27;4.55;;;;;;;;;;5068174;28;20030;-72
2022/11/20 08:46:16;;;;;;;7.93;4.55;;;;;;;;;;5068854;28;20039;-72
2022/11/20 08:48:42;;;;;;;7.68;3.90;;;;;;;;;;5067452;28;20028;-72
2022/11/20 08:51:08;;;;;;;7.50;3.97;;;;;;;;;;5101384;28;20289;-72
2022/11/20 08:53:33;;;;;;;6.90;4.00;;;;;;;;;;5068607;28;20104;-72
2022/11/20 08:55:59;;;;;;;8.95;4.20;;;;;;;;;;5068619;28;20041;-74
2022/11/20 08:58:25;;;;;;;5.50;3.53;;;;;;;;;;5068420;28;20025;-73
2022/11/20 09:00:51;;;;;;;8.10;3.60;;;;;;;;;;5072552;28;20024;-72
2022/11/20 09:03:16;;;;;;;6.57;3.60;;;;;;;;;;5071990;28;20032;-72
2022/11/20 09:05:42;;;;;;;5.88;3.55;;;;;;;;;;5072442;28;20024;-72
2022/11/20 09:08:08;;;;;;;7.32;3.42;;;;;;;;;;5072199;28;20085;-73
2022/11/20 09:10:34;;;;;;;6.68;3.67;;;;;;;;;;5072591;28;20115;-73
2022/11/20 09:12:59;;;;;;;6.40;3.80;;;;;;;;;;5071691;28;20035;-72
2022/11/20 09:15:25;;;;;;;7.47;4.25;;;;;;;;;;5072352;28;20027;-73
2022/11/20 09:17:55;;;;;;;7.45;4.32;;;;;;;;;;5072191;28;20024;-78
2022/11/20 09:20:21;;;;;;;7.17;4.50;;;;;;;;;;5072322;28;20039;-75
2022/11/20 09:22:47;;;;;;;7.10;4.45;;;;;;;;;;5072014;28;20099;-77
2022/11/20 09:25:12;;;;;;;7.20;4.50;;;;;;;;;;5071831;28;20059;-78
2022/11/20 09:27:38;;;;;;;8.20;5.03;;;;;;;;;;5071670;28;20070;-76
2022/11/20 09:30:04;;;;;;;8.48;4.75;;;;;;;;;;5072046;28;20511;-77
2022/11/20 09:32:29;;;;;;;7.80;4.70;;;;;;;;;;5071934;28;20509;-76
2022/11/20 09:34:55;;;;;;;8.95;5.05;;;;;;;;;;5071761;28;20111;-76
2022/11/20 09:37:20;;;;;;;9.77;4.78;;;;;;;;;;5070530;28;20035;-75
2022/11/20 09:39:46;;;;;;;8.25;4.50;;;;;;;;;;5071511;28;20021;-75
2022/11/20 09:42:42;;;;;;;8.70;4.85;;;;;;;;;;5071437;28;20049;-76
2022/11/20 09:45:37;;;;;;;6.88;4.32;;;;;;;;;;5070974;28;20500;-76
2022/11/20 09:48:03;;;;;;;12.02;4.57;;;;;;;;;;5071702;28;20119;-76
2022/11/20 09:50:39;;;;;;;8.20;4.75;;;;;;;;;;5071698;28;20020;-75
2022/11/20 09:53:37;;;;;;;7.45;4.13;;;;;;;;;;5071594;28;20031;-76
2022/11/20 09:56:04;;;;;;;7.38;3.97;;;;;;;;;;5071148;28;20052;-76
2022/11/20 09:58:45;;;;;;;8.48;4.22;;;;;;;;;;5070860;28;20052;-76
2022/11/20 10:01:17;;;;;;;7.68;4.40;;;;;;;;;;5071463;28;20092;-75
2022/11/20 10:03:54;;;;;;;7.40;4.30;;;;;;;;;;5070776;28;20021;-76
2022/11/20 10:06:29;;;;;;;7.50;4.70;;;;;;;;;;5071184;28;20032;-76
2022/11/20 10:09:08;;;;;;;8.15;4.30;;;;;;;;;;5071046;28;20060;-76
2022/11/20 10:11:45;;;;;;;6.55;3.80;;;;;;;;;;5071002;28;20024;-77
2022/11/20 10:14:26;;;;;;;6.78;4.28;;;;;;;;;;5070532;28;20111;-77
2022/11/20 10:17:09;;;;;;;6.55;4.15;;;;;;;;;;5071073;28;20036;-77
2022/11/20 10:19:43;;;;;;;6.22;4.22;;;;;;;;;;5070631;28;20108;-76
2022/11/20 10:22:09;;;;;;;7.70;4.50;;;;;;;;;;5070879;28;20074;-77
2022/11/20 10:25:05;;;;;;;8.40;5.05;;;;;;;;;;5069212;28;20028;-75
2022/11/20 10:27:57;;;;;;;6.80;4.32;;;;;;;;;;5068135;28;20044;-77
2022/11/20 10:30:25;;;;;;;6.45;3.70;;;;;;;;;;5068364;28;20116;-77
2022/11/20 10:33:03;;;;;;;5.60;3.78;;;;;;;;;;5070798;28;20029;-78
2022/11/20 10:35:45;;;;;;;6.68;4.10;;;;;;;;;;5070572;28;20028;-75
2022/11/20 10:38:29;;;;;;;6.70;4.03;;;;;;;;;;5070685;28;20029;-74
2022/11/20 10:41:24;;;;;;;7.85;3.75;;;;;;;;;;5070200;28;20021;-73
2022/11/20 10:43:45;;;;;;;6.13;3.47;;;;;;;;;;5069764;28;20043;-73
2022/11/20 10:46:16;;;;;;;5.68;3.55;;;;;;;;;;5070319;28;20033;-72
2022/11/20 10:48:44;;;;;;;4.38;2.58;;;;;;;;;;5070359;28;20020;-74
2022/11/20 10:51:13;;;;;;;6.13;2.80;;;;;;;;;;5070535;28;20048;-73
2022/11/20 10:53:57;;;;;;;3.92;2.65;;;;;;;;;;5070131;28;20032;-72
2022/11/20 10:56:45;;;;;;;5.22;3.10;;;;;;;;;;5069966;28;20075;-72
2022/11/20 10:59:41;;;;;;;5.70;2.63;;;;;;;;;;5069650;28;20092;-73
2022/11/20 11:02:33;;;;;;;7.15;3.00;;;;;;;;;;5070062;28;20037;-73
2022/11/20 11:05:10;;;;;;;5.82;3.22;;;;;;;;;;5068381;28;20381;-74
2022/11/20 11:07:39;;;;;;;4.93;2.80;;;;;;;;;;5069953;28;20055;-73
2022/11/20 11:10:18;;;;;;;4.97;2.78;;;;;;;;;;5069886;28;20016;-73
2022/11/20 11:12:46;;;;;;;10.50;4.88;;;;;;;;;;5069681;28;20484;-72
2022/11/20 11:15:25;;;;;;;8.30;3.83;;;;;;;;;;5068509;28;20523;-73
2022/11/20 11:17:51;;;;;;;7.63;3.88;;;;;;;;;;5069786;28;20101;-72
2022/11/20 11:20:19;;;;;;;7.13;3.60;;;;;;;;;;5069499;28;20389;-73
2022/11/20 11:22:54;;;;;;;4.78;2.80;;;;;;;;;;5069039;28;20082;-73
2022/11/20 11:25:33;;;;;;;4.18;2.40;;;;;;;;;;5069314;28;20117;-74
2022/11/20 11:28:04;;;;;;;4.65;2.67;;;;;;;;;;5069430;28;20052;-73
2022/11/20 11:30:41;;;;;;;4.35;2.42;;;;;;;;;;5069451;28;20024;-73
2022/11/20 11:33:11;;;;;;;4.63;2.53;;;;;;;;;;5069654;28;20020;-73
2022/11/20 11:35:58;;;;;;;3.53;2.15;;;;;;;;;;5069316;28;20681;-72
2022/11/20 11:38:44;;;;;;;5.75;2.78;;;;;;;;;;5069754;28;20032;-73
2022/11/20 11:41:16;;;;;;;4.63;2.70;;;;;;;;;;5068991;28;20032;-73
2022/11/20 11:46:37;;;;;;;5.88;3.20;;;;;;;;;;5069468;28;20372;-73
2022/11/20 11:49:08;;;;;;;5.15;2.45;;;;;;;;;;5069737;28;20403;-73
2022/11/20 11:51:41;;;;;;;4.07;2.35;;;;;;;;;;5069272;28;20424;-73
2022/11/20 11:54:45;;;;;;;4.95;2.35;;;;;;;;;;5069357;28;20038;-73
2022/11/20 11:57:40;;;;;;;4.80;2.30;;;;;;;;;;5068172;28;20053;-73
2022/11/20 12:00:09;;;;;;;3.75;2.10;;;;;;;;;;5066934;28;20040;-73
2022/11/20 12:02:38;;;;;;;4.13;2.33;;;;;;;;;;5069013;28;20028;-73
2022/11/20 12:05:44;;;;;;;3.92;2.03;;;;;;;;;;5068890;28;20044;-73
2022/11/20 12:08:38;;;;;;;2.90;1.85;;;;;;;;;;5069344;28;20067;-72
2022/11/20 12:11:16;;;;;;;3.20;2.00;;;;;;;;;;5069078;28;20055;-73
2022/11/20 12:13:58;;;;;;;6.88;2.30;;;;;;;;;;5069006;28;20569;-72
2022/11/20 12:16:24;;;;;;;3.95;2.08;;;;;;;;;;5068944;28;20036;-74
2022/11/20 12:18:52;;;;;;;4.38;2.20;;;;;;;;;;5069160;28;20024;-75
2022/11/20 12:21:40;;;;;;;4.15;2.03;;;;;;;;;;5068542;28;20025;-73
2022/11/20 12:24:39;;;;;;;4.13;2.17;;;;;;;;;;5068908;28;20028;-74
2022/11/20 12:27:37;;;;;;;3.75;1.88;;;;;;;;;;5068423;28;20114;-73
2022/11/20 12:30:19;;;;;;;3.38;1.73;;;;;;;;;;5064923;28;20137;-74
2022/11/20 12:33:04;;;;;;;3.17;1.95;;;;;;;;;;5069553;28;20107;-77
2022/11/20 12:36:04;;;;;;;4.63;1.80;;;;;;;;;;5072840;28;20025;-75
2022/11/20 12:38:48;;;;;;;3.83;2.20;;;;;;;;;;5072906;28;20035;-76
2022/11/20 12:47:24;;;;;;;5.35;2.42;;;;;;;;;;5072937;28;20035;-75
2022/11/20 12:50:06;;;;;;;6.10;3.40;;;;;;;;;;5073027;28;20028;-76
2022/11/20 12:52:41;;;;;;;3.72;2.03;;;;;;;;;;5072840;28;20040;-76
2022/11/20 12:55:24;;;;;;;6.10;3.00;;;;;;;;;;5072309;28;20048;-76
2022/11/20 12:57:58;;;;;;;4.72;2.50;;;;;;;;;;5070853;28;20115;-75
2022/11/20 13:00:24;;;;;;;5.45;2.65;;;;;;;;;;5072511;28;20090;-73
2022/11/20 13:03:08;;;;;;;5.35;2.60;;;;;;;;;;5071108;28;20490;-72
2022/11/20 13:05:40;;;;;;;6.80;2.50;;;;;;;;;;5072102;28;20082;-73
2022/11/20 13:08:18;;;;;;;7.88;2.88;;;;;;;;;;5072603;28;20101;-73
2022/11/20 13:10:50;;;;;;;4.68;1.65;;;;;;;;;;5072208;28;20020;-73
2022/11/20 13:13:40;;;;;;;3.28;1.23;;;;;;;;;;5070553;28;20028;-73
2022/11/20 13:16:20;;;;;;;3.75;1.10;;;;;;;;;;5072067;28;20498;-73
2022/11/20 13:18:45;;;;;;;2.65;1.00;;;;;;;;;;5072188;28;20031;-73
2022/11/20 13:21:54;;;;;;;1.70;0.80;;;;;;;;;;5071908;28;20016;-75
2022/11/20 13:24:20;;;;;;;3.17;1.15;;;;;;;;;;5071532;28;20032;-76
2022/11/20 13:26:46;;;;;;;4.07;1.20;;;;;;;;;;5072145;28;20028;-76
2022/11/20 13:29:18;;;;;;;2.53;1.05;;;;;;;;;;5071944;28;20024;-76
2022/11/20 13:31:46;;;;;;;5.55;1.10;;;;;;;;;;5071771;28;20036;-76
2022/11/20 13:34:25;;;;;;;2.00;1.10;;;;;;;;;;5071895;28;20025;-76
2022/11/20 13:36:56;;;;;;;2.08;1.15;;;;;;;;;;5071654;28;20036;-76
2022/11/20 13:39:26;;;;;;;4.32;1.25;;;;;;;;;;5071890;28;20024;-76
2022/11/20 13:41:57;;;;;;;4.45;1.40;;;;;;;;;;5069803;28;20028;-76
2022/11/20 13:44:29;;;;;;;4.30;1.70;;;;;;;;;;5071093;28;20139;-76
2022/11/20 13:46:54;;;;;;;5.05;1.90;;;;;;;;;;5071478;28;20020;-75
2022/11/20 13:49:33;;;;;;;4.22;1.80;;;;;;;;;;5071607;28;20369;-76
2022/11/20 13:52:32;;;;;;;4.97;2.13;;;;;;;;;;5071411;28;20484;-76
2022/11/20 13:55:22;;;;;;;5.07;1.88;;;;;;;;;;5071059;28;20059;-73
2022/11/20 13:58:05;;;;;;;6.75;2.38;;;;;;;;;;5070813;28;20032;-76
2022/11/20 14:00:31;;;;;;;5.35;2.50;;;;;;;;;;5071328;28;20097;-73
2022/11/20 14:03:09;;;;;;;6.75;2.50;;;;;;;;;;5070956;28;20145;-74
2022/11/20 14:05:38;;;;;;;4.85;2.13;;;;;;;;;;5070968;28;20040;-74
2022/11/20 14:08:10;;;;;;;6.22;2.30;;;;;;;;;;5071002;28;20039;-73
2022/11/20 14:10:39;;;;;;;4.95;2.65;;;;;;;;;;5071128;28;20032;-73
2022/11/20 14:13:15;;;;;;;4.50;2.78;;;;;;;;;;5070816;28;20567;-73
2022/11/20 14:15:42;;;;;;;6.38;2.95;;;;;;;;;;5071126;28;20370;-74
2022/11/20 14:18:14;;;;;;;5.43;2.22;;;;;;;;;;5070582;28;20029;-76
2022/11/20 14:20:42;;;;;;;6.15;2.28;;;;;;;;;;5070989;28;20154;-76
2022/11/20 14:23:09;;;;;;;5.82;1.85;;;;;;;;;;5070951;28;20024;-76
2022/11/20 14:25:35;;;;;;;7.25;2.10;;;;;;;;;;5070714;28;20021;-77
2022/11/20 14:28:02;;;;;;;5.07;1.92;;;;;;;;;;5070534;28;20031;-77
2022/11/20 14:30:38;;;;;;;5.57;1.75;;;;;;;;;;5070888;28;20020;-76
2022/11/20 14:33:04;;;;;;;3.53;1.80;;;;;;;;;;5070649;28;20534;-77
2022/11/20 14:35:36;;;;;;;7.10;2.00;;;;;;;;;;5069328;28;20059;-77
2022/11/20 14:38:03;;;;;;;7.00;2.17;;;;;;;;;;5070373;28;20035;-76
2022/11/20 14:40:37;;;;;;;6.28;1.85;;;;;;;;;;5070619;28;20028;-76
2022/11/20 14:43:16;;;;;;;7.85;2.08;;;;;;;;;;5069981;28;20086;-73
2022/11/20 14:45:43;;;;;;;7.95;1.77;;;;;;;;;;5070547;28;20107;-73
2022/11/20 14:48:10;;;;;;;6.90;2.30;;;;;;;;;;5070565;28;20488;-73
2022/11/20 14:50:37;;;;;;;8.13;1.83;;;;;;;;;;5070462;28;20032;-73
2022/11/20 14:53:03;;;;;;;6.25;1.73;;;;;;;;;;5070406;28;20117;-73
2022/11/20 14:55:37;;;;;;;4.13;1.60;;;;;;;;;;5069973;28;20068;-73
2022/11/20 14:58:23;;;;;;;5.28;1.60;;;;;;;;;;5068819;28;20147;-73
2022/11/20 15:00:58;;;;;;;11.18;1.77;;;;;;;;;;5070350;28;20474;-73
2022/11/20 15:03:30;;;;;;;6.50;1.98;;;;;;;;;;5070083;28;20021;-73
2022/11/20 15:05:55;;;;;;;11.35;1.60;;;;;;;;;;5070059;28;20028;-73
2022/11/20 15:08:21;;;;;;;9.45;1.70;;;;;;;;;;5070407;28;20028;-73
2022/11/20 15:10:49;;;;;;;9.32;2.30;;;;;;;;;;5070089;28;20020;-74
2022/11/20 15:13:24;;;;;;;8.25;1.75;;;;;;;;;;5069684;28;20112;-75